createdAt,value
2018-11-20T00:00:08.497Z,5.08
2018-11-20T00:02:43.731Z,4.42
2018-11-20T00:05:23.977Z,4.40
2018-11-20T00:07:57.033Z,4.25
2018-11-20T00:10:30.513Z,4.65
2018-11-20T00:13:02.772Z,4.92
2018-11-20T00:15:47.040Z,3.70
2018-11-20T00:18:22.180Z,4.80
2018-11-20T00:20:54.428Z,5.50
2018-11-20T00:23:27.729Z,4.30
2018-11-20T00:26:01.089Z,4.47
2018-11-20T00:28:38.237Z,4.93
2018-11-20T00:31:11.716Z,5.07
2018-11-20T00:33:58.825Z,4.53
2018-11-20T00:36:32.167Z,4.30
2018-11-20T00:39:04.404Z,4.63
2018-11-20T00:43:38.830Z,4.87
2018-11-20T00:46:11.085Z,4.20
2018-11-20T00:50:47.451Z,4.87
2018-11-20T00:53:19.713Z,5.00
2018-11-20T00:56:03.185Z,4.87
2018-11-20T00:58:35.445Z,4.03
2018-11-20T01:01:08.006Z,4.90
2018-11-20T01:03:44.253Z,5.25
2018-11-20T01:06:20.074Z,4.65
2018-11-20T01:08:53.421Z,4.83
2018-11-20T01:12:25.701Z,5.10
2018-11-20T01:14:57.985Z,6.37
2018-11-20T01:17:31.134Z,3.93
2018-11-20T01:20:06.393Z,4.83
2018-11-20T01:22:39.839Z,6.10
2018-11-20T01:26:15.024Z,5.53
2018-11-20T01:28:50.343Z,6.17
2018-11-20T01:31:26.456Z,5.40
2018-11-20T01:33:59.614Z,5.40
2018-11-20T01:37:05.942Z,4.53
2018-11-20T01:39:42.050Z,5.87
2018-11-20T01:42:16.399Z,5.90
2018-11-20T01:44:49.873Z,6.87
2018-11-20T01:47:23.241Z,5.95
2018-11-20T01:49:56.574Z,5.72
2018-11-20T01:52:30.049Z,5.37
2018-11-20T01:55:02.315Z,6.07
2018-11-20T01:57:35.645Z,5.67
2018-11-20T02:00:39.802Z,6.50
2018-11-20T02:03:32.935Z,6.70
2018-11-20T02:07:08.223Z,5.70
2018-11-20T02:09:41.506Z,6.28
2018-11-20T02:13:13.759Z,7.08
2018-11-20T02:15:49.985Z,5.90
2018-11-20T02:18:25.157Z,6.80
2018-11-20T02:20:58.563Z,6.20
2018-11-20T02:23:34.734Z,5.80
2018-11-20T02:26:23.790Z,6.40
2018-11-20T02:29:00.872Z,6.40
2018-11-20T02:31:36.071Z,6.80
2018-11-20T02:34:12.692Z,6.03
2018-11-20T02:36:49.911Z,6.35
2018-11-20T02:39:23.357Z,6.62
2018-11-20T02:41:56.626Z,6.80
2018-11-20T02:44:29.710Z,5.60
2018-11-20T02:49:07.015Z,6.33
2018-11-20T02:51:40.418Z,5.70
2018-11-20T02:54:12.606Z,6.53
2018-11-20T02:57:19.720Z,7.20
2018-11-20T03:01:53.836Z,6.58
2018-11-20T03:05:30.085Z,6.67
2018-11-20T03:08:05.136Z,6.23
2018-11-20T03:10:42.321Z,7.53
2018-11-20T03:13:15.385Z,7.70
2018-11-20T03:15:47.582Z,7.13
2018-11-20T03:18:22.686Z,7.00
2018-11-20T03:20:58.767Z,8.13
2018-11-20T03:23:39.955Z,7.00
2018-11-20T03:26:16.457Z,7.30
2018-11-20T03:28:55.653Z,7.85
2018-11-20T03:31:29.061Z,7.53
2018-11-20T03:35:05.137Z,8.03
2018-11-20T03:37:38.190Z,7.83
2018-11-20T03:40:12.445Z,8.08
2018-11-20T03:42:44.646Z,7.55
2018-11-20T03:45:21.980Z,7.30
2018-11-20T03:47:55.594Z,7.90
2018-11-20T03:50:35.667Z,7.67
2018-11-20T03:53:26.875Z,8.38
2018-11-20T03:56:00.333Z,6.67
2018-11-20T03:58:35.585Z,6.73
2018-11-20T04:01:24.791Z,7.13
2018-11-20T04:04:01.921Z,8.10
2018-11-20T04:06:35.390Z,7.73
2018-11-20T04:09:09.473Z,7.07
2018-11-20T04:11:41.765Z,7.70
2018-11-20T04:14:17.008Z,7.30
2018-11-20T04:16:51.266Z,8.33
2018-11-20T04:21:26.525Z,7.95
2018-11-20T04:24:01.646Z,8.13
2018-11-20T04:26:35.035Z,8.40
2018-11-20T04:29:08.350Z,7.33
2018-11-20T04:31:55.863Z,7.95
2018-11-20T04:34:28.169Z,8.30
2018-11-20T04:37:03.568Z,7.08
2018-11-20T04:39:37.085Z,7.63
2018-11-20T04:44:12.429Z,8.07
2018-11-20T04:47:11.673Z,8.93
2018-11-20T04:49:43.942Z,8.00
2018-11-20T04:52:19.153Z,7.92
2018-11-20T04:55:06.281Z,9.10
2018-11-20T04:57:39.787Z,8.35
2018-11-20T05:00:18.928Z,8.00
2018-11-20T05:02:52.261Z,7.97
2018-11-20T05:05:25.601Z,8.47
2018-11-20T05:07:57.844Z,8.08
2018-11-20T05:10:33.101Z,8.25
2018-11-20T05:13:06.583Z,7.40
2018-11-20T05:15:40.686Z,8.13
2018-11-20T05:19:17.005Z,7.57
2018-11-20T05:23:56.374Z,7.17
2018-11-20T05:26:33.503Z,7.20
2018-11-20T05:29:07.585Z,6.97
2018-11-20T05:31:41.690Z,7.80
2018-11-20T05:34:16.800Z,7.60
2018-11-20T05:36:50.911Z,7.10
2018-11-20T05:41:28.217Z,6.33
2018-11-20T05:44:01.701Z,6.97
2018-11-20T05:47:39.165Z,7.22
2018-11-20T05:50:12.620Z,7.77
2018-11-20T05:52:45.889Z,7.40
2018-11-20T05:57:20.090Z,7.30
2018-11-20T05:59:54.237Z,7.13
2018-11-20T06:02:28.525Z,7.30
2018-11-20T06:05:06.650Z,7.63
2018-11-20T06:07:40.015Z,7.90
2018-11-20T06:10:13.356Z,8.63
2018-11-20T06:12:47.699Z,8.60
2018-11-20T06:17:24.025Z,7.17
2018-11-20T06:20:15.383Z,6.97
2018-11-20T06:24:50.648Z,7.37
2018-11-20T06:27:23.998Z,8.83
2018-11-20T06:30:16.283Z,7.80
2018-11-20T06:34:51.783Z,7.45
2018-11-20T06:37:27.013Z,7.67
2018-11-20T06:40:04.307Z,6.90
2018-11-20T06:42:37.866Z,6.30
2018-11-20T06:45:11.682Z,6.72
2018-11-20T06:47:44.994Z,8.03
2018-11-20T06:50:18.336Z,6.60
2018-11-20T06:52:51.854Z,8.48
2018-11-20T06:55:29.976Z,8.60
2018-11-20T07:00:04.222Z,7.97
2018-11-20T07:02:36.485Z,7.47
2018-11-20T07:05:18.829Z,8.10
2018-11-20T07:07:51.199Z,8.90
2018-11-20T07:10:27.267Z,7.80
2018-11-20T07:13:09.045Z,8.53
2018-11-20T07:15:47.397Z,8.87
2018-11-20T07:18:24.598Z,8.17
2018-11-20T07:20:56.864Z,9.38
2018-11-20T07:23:30.211Z,8.30
2018-11-20T07:26:08.497Z,9.70
2018-11-20T07:30:48.846Z,10.08
2018-11-20T07:35:28.010Z,8.73
2018-11-20T07:38:01.446Z,9.05
2018-11-20T07:40:36.722Z,9.47
2018-11-20T07:43:14.982Z,10.57
2018-11-20T07:45:52.261Z,9.37
2018-11-20T07:48:25.632Z,10.90
2018-11-20T07:51:09.812Z,9.40
2018-11-20T07:55:44.109Z,10.70
2018-11-20T07:58:17.424Z,8.50
2018-11-20T08:00:50.720Z,9.80
2018-11-20T08:03:24.997Z,10.47
2018-11-20T08:08:03.197Z,11.47
2018-11-20T08:10:36.669Z,10.13
2018-11-20T08:13:15.040Z,11.90
2018-11-20T08:15:49.370Z,10.80
2018-11-20T08:18:28.493Z,11.43
2018-11-20T08:21:02.765Z,10.83
2018-11-20T08:24:39.945Z,12.10
2018-11-20T08:27:32.074Z,9.70
2018-11-20T08:30:06.332Z,10.67
2018-11-20T08:32:39.478Z,10.43
2018-11-20T08:35:13.833Z,11.40
2018-11-20T08:39:49.192Z,10.60
2018-11-20T08:42:41.514Z,9.97
2018-11-20T08:45:14.981Z,10.60
2018-11-20T08:47:48.383Z,10.27
2018-11-20T08:50:21.784Z,9.95
2018-11-20T08:53:57.066Z,10.60
2018-11-20T08:56:35.233Z,10.80
2018-11-20T08:59:24.361Z,9.80
2018-11-20T09:01:57.761Z,9.57
2018-11-20T09:04:33.993Z,9.67
2018-11-20T09:07:07.518Z,9.63
2018-11-20T09:09:40.888Z,10.23
2018-11-20T09:14:17.243Z,9.50
2018-11-20T09:16:50.573Z,8.47
2018-11-20T09:19:43.701Z,8.43
2018-11-20T09:22:15.961Z,8.93
2018-11-20T09:24:48.229Z,9.67
2018-11-20T09:27:24.377Z,8.60
2018-11-20T09:32:01.790Z,9.53
2018-11-20T09:34:37.151Z,9.10
2018-11-20T09:38:44.617Z,10.50
2018-11-20T09:41:18.846Z,8.70
2018-11-20T09:46:03.780Z,10.13
2018-11-20T09:48:39.091Z,8.03
2018-11-20T09:51:12.529Z,9.40
2018-11-20T09:59:54.236Z,9.40
2018-11-20T10:02:35.329Z,10.13
2018-11-20T10:05:08.856Z,8.40
2018-11-20T10:07:50.111Z,9.60
2018-11-20T10:10:26.454Z,9.50
2018-11-20T10:13:29.657Z,8.60
2018-11-20T10:16:09.929Z,8.50
2018-11-20T10:18:43.054Z,9.80
2018-11-20T10:21:16.508Z,9.20
2018-11-20T10:25:55.159Z,10.53
2018-11-20T10:29:27.163Z,9.63
2018-11-20T10:32:00.531Z,9.48
2018-11-20T10:34:42.899Z,9.00
2018-11-20T10:37:16.200Z,9.00
2018-11-20T10:40:05.481Z,8.70
2018-11-20T10:42:37.733Z,9.13
2018-11-20T10:47:17.141Z,8.78
2018-11-20T10:50:00.239Z,9.37
2018-11-20T10:52:36.607Z,9.08
2018-11-20T10:55:29.892Z,8.33
2018-11-20T10:58:05.181Z,9.13
2018-11-20T11:00:38.640Z,10.23
2018-11-20T11:03:11.980Z,9.43
2018-11-20T11:05:45.347Z,9.63
2018-11-20T11:08:18.788Z,7.28
2018-11-20T11:10:57.902Z,9.30
2018-11-20T11:13:33.246Z,8.87
2018-11-20T11:16:06.637Z,8.30
2018-11-20T11:18:40.010Z,8.40
2018-11-20T11:21:22.099Z,8.63
2018-11-20T11:23:59.379Z,9.88
2018-11-20T11:26:39.651Z,9.70
2018-11-20T11:29:20.943Z,8.67
2018-11-20T11:32:00.088Z,9.38
2018-11-20T11:34:34.377Z,8.40
2018-11-20T11:37:07.849Z,8.55
2018-11-20T11:41:44.062Z,8.70
2018-11-20T11:44:17.415Z,8.70
2018-11-20T11:48:55.404Z,8.93
2018-11-20T11:51:48.598Z,8.97
2018-11-20T11:54:21.855Z,7.97
2018-11-20T11:56:55.126Z,9.58
2018-11-20T11:59:28.311Z,8.87
